createdAt,value
2019-05-10T00:02:32.759Z,71.60
2019-05-10T00:05:23.713Z,71.26
2019-05-10T00:08:16.714Z,71.53
2019-05-10T00:10:53.294Z,71.20
2019-05-10T00:13:30.458Z,71.09
2019-05-10T00:16:06.157Z,71.40
2019-05-10T00:18:41.431Z,71.99
2019-05-10T00:21:16.582Z,72.22
2019-05-10T00:23:51.934Z,73.06
2019-05-10T00:26:26.981Z,73.19
2019-05-10T00:29:02.436Z,72.62
2019-05-10T00:31:37.661Z,72.62
2019-05-10T00:34:12.354Z,72.79
2019-05-10T00:36:47.338Z,73.29
2019-05-10T00:39:22.549Z,73.68
2019-05-10T00:41:58.008Z,73.75
2019-05-10T00:44:32.673Z,74.29
2019-05-10T00:47:07.275Z,74.29
2019-05-10T00:49:41.921Z,73.92
2019-05-10T00:52:16.425Z,73.34
2019-05-10T00:54:51.260Z,73.34
2019-05-10T00:57:25.888Z,73.38
2019-05-10T01:00:00.422Z,72.66
2019-05-10T01:02:35.267Z,72.44
2019-05-10T01:05:10.289Z,72.04
2019-05-10T01:07:44.947Z,72.04
2019-05-10T01:10:19.953Z,71.49
2019-05-10T01:12:54.436Z,71.49
2019-05-10T01:15:29.288Z,71.26
2019-05-10T01:18:05.283Z,70.84
2019-05-10T01:20:39.945Z,71.51
2019-05-10T01:23:14.415Z,72.16
2019-05-10T01:25:49.275Z,72.01
2019-05-10T01:28:23.922Z,71.78
2019-05-10T01:30:58.398Z,71.41
2019-05-10T01:33:33.282Z,71.89
2019-05-10T01:36:08.265Z,72.31
2019-05-10T01:38:43.271Z,72.87
2019-05-10T01:41:17.933Z,72.96
2019-05-10T01:43:52.658Z,73.81
2019-05-10T01:46:27.007Z,73.81
2019-05-10T01:49:01.279Z,73.93
2019-05-10T01:51:35.948Z,73.91
2019-05-10T01:54:10.786Z,73.64
2019-05-10T01:56:44.065Z,73.64
2019-05-10T01:59:18.277Z,73.94
2019-05-10T02:01:52.752Z,73.97
2019-05-10T02:04:43.953Z,73.90
2019-05-10T02:07:19.151Z,73.50
2019-05-10T02:09:53.948Z,74.01
2019-05-10T02:12:28.111Z,74.01
2019-05-10T02:15:02.667Z,74.25
2019-05-10T02:17:38.279Z,74.25
2019-05-10T02:20:13.261Z,73.71
2019-05-10T02:22:47.784Z,72.80
2019-05-10T02:25:21.032Z,72.80
2019-05-10T02:27:55.291Z,72.66
2019-05-10T02:30:30.278Z,72.84
2019-05-10T02:33:05.119Z,72.54
2019-05-10T02:35:39.941Z,72.29
2019-05-10T02:38:14.704Z,72.21
2019-05-10T02:40:49.288Z,72.21
2019-05-10T02:43:24.252Z,71.94
2019-05-10T02:45:59.715Z,71.80
2019-05-10T02:48:33.111Z,71.85
2019-05-10T02:51:07.782Z,71.30
2019-05-10T02:53:40.859Z,71.30
2019-05-10T02:56:29.898Z,71.19
2019-05-10T02:58:55.723Z,70.85
2019-05-10T03:01:31.480Z,70.91
2019-05-10T03:04:06.282Z,70.76
2019-05-10T03:06:43.565Z,70.48
2019-05-10T03:09:18.286Z,70.48
2019-05-10T03:11:53.296Z,70.69
2019-05-10T03:14:29.460Z,70.39
2019-05-10T03:17:06.283Z,70.00
2019-05-10T03:19:41.352Z,70.24
2019-05-10T03:22:17.278Z,70.16
2019-05-10T03:24:51.954Z,69.98
2019-05-10T03:27:26.805Z,69.94
2019-05-10T03:29:59.861Z,70.55
2019-05-10T03:32:34.287Z,70.55
2019-05-10T03:35:09.718Z,70.74
2019-05-10T03:37:43.053Z,70.84
2019-05-10T03:40:17.704Z,70.57
2019-05-10T03:42:52.117Z,70.39
2019-05-10T03:45:28.283Z,70.09
2019-05-10T03:48:03.107Z,70.35
2019-05-10T03:50:37.949Z,70.46
2019-05-10T03:53:12.783Z,70.62
2019-05-10T03:55:47.277Z,70.62
2019-05-10T03:58:21.747Z,70.75
2019-05-10T04:00:54.858Z,70.44
2019-05-10T04:03:29.432Z,70.51
2019-05-10T04:06:04.273Z,70.51
2019-05-10T04:08:38.876Z,69.93
2019-05-10T04:11:13.421Z,69.93
2019-05-10T04:13:48.284Z,69.70
2019-05-10T04:16:23.287Z,69.89
2019-05-10T04:18:57.942Z,69.58
2019-05-10T04:21:32.732Z,69.32
2019-05-10T04:24:07.940Z,69.60
2019-05-10T04:27:35.686Z,69.30
2019-05-10T04:30:11.073Z,69.14
2019-05-10T04:32:45.746Z,68.82
2019-05-10T04:35:18.960Z,68.86
2019-05-10T04:37:53.272Z,69.20
2019-05-10T04:40:27.714Z,69.12
2019-05-10T04:43:03.265Z,69.06
2019-05-10T04:45:38.423Z,69.45
2019-05-10T04:48:13.614Z,69.24
2019-05-10T04:50:49.246Z,69.54
2019-05-10T04:53:24.298Z,69.08
2019-05-10T04:55:59.499Z,68.76
2019-05-10T04:58:34.962Z,67.69
2019-05-10T05:01:10.290Z,67.45
2019-05-10T05:03:45.269Z,67.45
2019-05-10T05:06:20.292Z,67.49
2019-05-10T05:08:55.275Z,67.55
2019-05-10T05:11:29.687Z,67.38
2019-05-10T05:14:03.933Z,67.30
2019-05-10T05:16:38.144Z,67.30
2019-05-10T05:19:13.533Z,67.83
2019-05-10T05:21:47.929Z,67.83
2019-05-10T05:24:23.179Z,67.69
2019-05-10T05:26:58.268Z,67.79
2019-05-10T05:29:32.605Z,67.27
2019-05-10T05:32:07.263Z,67.72
2019-05-10T05:34:42.144Z,67.64
2019-05-10T05:37:16.904Z,67.17
2019-05-10T05:39:51.366Z,67.50
2019-05-10T05:42:27.862Z,68.10
2019-05-10T05:45:00.854Z,67.58
2019-05-10T05:47:37.598Z,67.58
2019-05-10T05:50:10.657Z,67.29
2019-05-10T05:52:45.278Z,67.86
2019-05-10T05:55:22.926Z,68.21
2019-05-10T05:57:59.179Z,68.30
2019-05-10T06:00:37.649Z,68.30
2019-05-10T06:03:09.287Z,68.46
2019-05-10T06:05:43.735Z,70.20
2019-05-10T06:08:22.977Z,70.56
2019-05-10T06:10:57.947Z,70.56
2019-05-10T06:13:32.238Z,70.15
2019-05-10T06:16:12.761Z,70.15
2019-05-10T06:18:47.247Z,70.51
2019-05-10T06:21:25.088Z,70.74
2019-05-10T06:23:59.239Z,70.74
2019-05-10T06:26:32.284Z,70.97
2019-05-10T06:29:16.419Z,70.88
2019-05-10T06:31:42.049Z,70.62
2019-05-10T06:34:16.676Z,70.74
2019-05-10T06:36:51.795Z,70.74
2019-05-10T06:39:26.405Z,70.56
2019-05-10T06:42:01.223Z,70.26
2019-05-10T06:44:35.877Z,70.59
2019-05-10T06:47:11.394Z,70.69
2019-05-10T06:49:50.752Z,70.63
2019-05-10T06:52:27.572Z,70.66
2019-05-10T06:54:58.816Z,70.44
2019-05-10T06:57:32.053Z,70.40
2019-05-10T07:00:08.081Z,69.47
2019-05-10T07:02:42.759Z,69.47
2019-05-10T07:05:17.273Z,69.20
2019-05-10T07:07:51.719Z,68.20
2019-05-10T07:10:25.380Z,67.76
2019-05-10T07:13:03.610Z,67.40
2019-05-10T07:15:41.987Z,67.18
2019-05-10T07:18:16.866Z,66.54
2019-05-10T07:20:49.269Z,65.53
2019-05-10T07:23:24.104Z,64.91
2019-05-10T07:25:58.940Z,63.82
2019-05-10T07:28:33.941Z,63.29
2019-05-10T07:31:08.985Z,63.29
2019-05-10T07:33:43.270Z,63.14
2019-05-10T07:36:20.873Z,61.76
2019-05-10T07:38:54.125Z,61.30
2019-05-10T07:41:29.285Z,60.95
2019-05-10T07:44:07.715Z,58.21
2019-05-10T07:46:46.415Z,56.07
2019-05-10T07:49:17.944Z,56.28
2019-05-10T07:51:52.385Z,56.28
2019-05-10T07:54:28.203Z,53.49
2019-05-10T07:57:02.729Z,52.93
2019-05-10T07:59:50.189Z,52.79
2019-05-10T08:02:14.934Z,50.15
2019-05-10T08:04:53.030Z,47.30
2019-05-10T08:07:26.272Z,47.30
2019-05-10T08:10:04.463Z,48.22
2019-05-10T08:12:41.429Z,45.79
2019-05-10T08:15:13.364Z,46.20
2019-05-10T08:17:50.698Z,46.35
2019-05-10T08:20:38.241Z,47.25
2019-05-10T08:23:02.696Z,46.56
2019-05-10T08:25:40.974Z,44.78
2019-05-10T08:28:15.284Z,43.90
2019-05-10T08:30:53.458Z,42.24
2019-05-10T08:33:26.409Z,40.07
2019-05-10T08:36:04.951Z,37.74
2019-05-10T08:38:39.594Z,38.37
2019-05-10T08:41:17.998Z,40.83
2019-05-10T08:43:52.400Z,41.96
2019-05-10T08:46:34.975Z,41.23
2019-05-10T08:49:02.324Z,42.21
2019-05-10T08:51:43.753Z,42.10
2019-05-10T08:54:13.279Z,41.84
2019-05-10T08:56:52.978Z,42.60
2019-05-10T08:59:26.687Z,43.22
2019-05-10T09:02:02.107Z,42.40
2019-05-10T09:04:42.825Z,42.40
2019-05-10T09:07:13.327Z,42.70
2019-05-10T09:09:50.088Z,43.13
2019-05-10T09:12:24.280Z,40.96
2019-05-10T09:15:06.570Z,36.73
2019-05-10T09:17:35.696Z,32.24
2019-05-10T09:20:20.170Z,30.68
2019-05-10T09:22:47.331Z,30.03
2019-05-10T09:25:29.224Z,30.20
2019-05-10T09:28:02.477Z,27.48
2019-05-10T09:30:52.209Z,27.20
2019-05-10T09:33:14.238Z,28.88
2019-05-10T09:35:52.331Z,32.47
2019-05-10T09:38:28.724Z,37.90
2019-05-10T09:41:02.574Z,37.90
2019-05-10T09:43:40.488Z,39.52
2019-05-10T09:46:14.156Z,40.03
2019-05-10T09:48:54.676Z,40.03
2019-05-10T09:51:30.146Z,38.14
2019-05-10T09:54:01.897Z,38.73
2019-05-10T09:56:39.647Z,38.23
2019-05-10T09:59:12.426Z,37.97
2019-05-10T10:01:48.452Z,37.47
2019-05-10T10:04:23.285Z,34.07
2019-05-10T10:06:58.262Z,33.81
2019-05-10T10:09:42.004Z,33.63
2019-05-10T10:12:09.055Z,32.48
2019-05-10T10:14:43.493Z,30.97
2019-05-10T10:17:20.525Z,30.70
2019-05-10T10:19:54.294Z,29.76
2019-05-10T10:22:29.116Z,30.30
2019-05-10T10:25:04.101Z,28.01
2019-05-10T10:27:39.642Z,29.07
2019-05-10T10:30:21.202Z,30.55
2019-05-10T10:32:51.398Z,31.22
2019-05-10T10:35:29.389Z,32.52
2019-05-10T10:38:03.473Z,32.21
2019-05-10T10:40:44.108Z,33.24
2019-05-10T10:43:17.855Z,33.24
2019-05-10T10:45:51.657Z,33.57
2019-05-10T10:48:28.383Z,33.79
2019-05-10T10:51:02.868Z,33.66
2019-05-10T10:53:37.281Z,33.66
2019-05-10T10:58:58.357Z,30.45
2019-05-10T11:01:49.196Z,30.82
2019-05-10T11:04:09.812Z,31.57
2019-05-10T11:06:44.450Z,31.41
2019-05-10T11:09:20.671Z,32.77
2019-05-10T11:11:55.457Z,32.47
2019-05-10T11:14:31.960Z,33.34
2019-05-10T11:17:06.707Z,34.29
2019-05-10T11:19:41.810Z,34.94
2019-05-10T11:22:16.297Z,34.65
2019-05-10T11:24:59.531Z,34.21
2019-05-10T11:27:25.771Z,33.90
2019-05-10T11:30:00.889Z,34.25
2019-05-10T11:32:36.938Z,33.82
2019-05-10T11:35:17.438Z,33.44
2019-05-10T11:37:50.681Z,33.44
2019-05-10T11:40:30.661Z,32.98
2019-05-10T11:43:01.517Z,27.05
2019-05-10T11:45:36.792Z,27.05
2019-05-10T11:48:10.875Z,25.12
2019-05-10T11:50:45.342Z,26.35
2019-05-10T11:53:23.585Z,27.98
2019-05-10T11:55:56.275Z,29.55
2019-05-10T11:58:31.214Z,30.90
2019-05-10T12:01:14.780Z,31.90
2019-05-10T12:03:42.620Z,32.05
2019-05-10T12:06:15.808Z,31.75
2019-05-10T12:08:56.906Z,31.01
2019-05-10T12:11:33.150Z,31.64
2019-05-10T12:14:03.284Z,31.79
2019-05-10T12:16:37.962Z,32.15
2019-05-10T12:19:19.864Z,31.25
2019-05-10T12:21:48.368Z,29.53
2019-05-10T12:24:39.003Z,28.72
2019-05-10T12:27:17.461Z,31.71
2019-05-10T12:29:36.274Z,31.71
2019-05-10T12:32:11.130Z,33.13
2019-05-10T12:34:50.446Z,34.15
2019-05-10T12:37:22.277Z,34.15
2019-05-10T12:40:06.175Z,34.95
2019-05-10T12:42:31.862Z,35.05
2019-05-10T12:45:05.252Z,35.07
2019-05-10T12:47:41.454Z,35.95
2019-05-10T12:50:16.773Z,35.72
2019-05-10T12:53:02.889Z,35.92
2019-05-10T12:55:26.094Z,36.40
2019-05-10T12:58:00.942Z,36.38
2019-05-10T13:00:35.718Z,34.83
2019-05-10T13:03:12.704Z,34.83
2019-05-10T13:05:52.674Z,34.60
2019-05-10T13:08:21.516Z,30.65
2019-05-10T13:10:56.254Z,27.39
2019-05-10T13:13:30.884Z,28.28
2019-05-10T13:16:09.497Z,28.28
2019-05-10T13:18:50.260Z,30.01
2019-05-10T13:21:20.921Z,28.02
2019-05-10T13:23:53.764Z,29.01
2019-05-10T13:26:29.285Z,29.01
2019-05-10T13:29:08.128Z,29.12
2019-05-10T13:31:42.882Z,30.02
2019-05-10T13:34:15.314Z,31.60
2019-05-10T13:36:49.951Z,33.16
2019-05-10T13:39:27.394Z,35.69
2019-05-10T13:42:03.261Z,35.69
2019-05-10T13:44:42.924Z,35.99
2019-05-10T13:47:14.277Z,35.99
2019-05-10T13:49:49.416Z,35.86
2019-05-10T13:52:29.778Z,35.50
2019-05-10T13:55:00.695Z,34.84
2019-05-10T13:57:35.286Z,33.83
2019-05-10T14:00:10.451Z,34.77
2019-05-10T14:02:45.102Z,34.13
2019-05-10T14:05:22.298Z,34.64
2019-05-10T14:07:57.284Z,35.79
2019-05-10T14:10:32.303Z,37.31
2019-05-10T14:13:07.331Z,37.09
2019-05-10T14:15:42.276Z,37.09
2019-05-10T14:18:17.286Z,38.16
2019-05-10T14:20:52.302Z,38.72
2019-05-10T14:23:28.973Z,39.53
2019-05-10T14:26:09.162Z,40.52
2019-05-10T14:28:40.696Z,40.52
2019-05-10T14:31:14.137Z,40.77
2019-05-10T14:34:14.134Z,41.10
2019-05-10T14:36:25.279Z,41.10
2019-05-10T14:39:00.272Z,41.48
2019-05-10T14:41:35.264Z,41.42
2019-05-10T14:44:10.273Z,41.92
2019-05-10T14:46:45.270Z,44.63
2019-05-10T14:49:19.889Z,48.66
2019-05-10T14:51:59.596Z,50.52
2019-05-10T14:54:43.377Z,48.42
2019-05-10T14:57:06.277Z,50.08
2019-05-10T14:59:40.818Z,50.08
2019-05-10T15:02:16.855Z,49.62
2019-05-10T15:04:52.003Z,49.29
2019-05-10T15:07:26.942Z,49.39
2019-05-10T15:10:02.365Z,49.39
2019-05-10T15:12:35.269Z,50.88
2019-05-10T15:15:10.374Z,47.84
2019-05-10T15:17:45.288Z,46.50
2019-05-10T15:20:20.517Z,42.14
2019-05-10T15:22:55.311Z,42.14
2019-05-10T15:25:30.290Z,41.17
2019-05-10T15:28:05.288Z,42.97
2019-05-10T15:30:45.841Z,43.09
2019-05-10T15:33:16.716Z,42.57
2019-05-10T15:35:51.736Z,43.15
2019-05-10T15:38:26.285Z,43.18
2019-05-10T15:41:01.117Z,43.18
2019-05-10T15:43:35.947Z,42.57
2019-05-10T15:46:10.507Z,42.67
2019-05-10T15:48:45.335Z,42.61
2019-05-10T15:51:34.121Z,43.87
2019-05-10T15:56:35.639Z,42.26
2019-05-10T15:59:12.712Z,43.10
2019-05-10T15:59:23.798Z,42.26
2019-05-10T16:01:46.001Z,43.10
2019-05-10T16:04:21.282Z,42.09
2019-05-10T16:06:56.236Z,42.81
2019-05-10T16:09:31.237Z,42.17
2019-05-10T16:12:08.709Z,41.87
2019-05-10T16:14:45.438Z,41.26
2019-05-10T16:17:23.561Z,41.63
2019-05-10T16:19:59.728Z,40.41
2019-05-10T16:22:32.373Z,41.79
2019-05-10T16:25:07.381Z,40.65
2019-05-10T16:27:44.922Z,40.66
2019-05-10T16:30:20.311Z,41.17
2019-05-10T16:32:55.288Z,40.60
2019-05-10T16:35:38.352Z,40.61
2019-05-10T16:38:04.819Z,40.61
2019-05-10T16:40:39.286Z,40.79
2019-05-10T16:43:18.953Z,42.02
2019-05-10T16:45:50.387Z,41.96
2019-05-10T16:48:28.276Z,41.88
2019-05-10T16:51:03.909Z,41.94
2019-05-10T16:53:37.720Z,42.10
2019-05-10T16:56:13.253Z,42.32
2019-05-10T16:58:53.269Z,42.16
2019-05-10T17:01:27.484Z,42.16
2019-05-10T17:04:01.980Z,42.79
2019-05-10T17:06:40.345Z,43.30
2019-05-10T17:09:18.182Z,42.41
2019-05-10T17:11:50.285Z,42.65
2019-05-10T17:14:24.780Z,42.42
2019-05-10T17:17:00.149Z,42.36
2019-05-10T17:19:36.126Z,42.81
2019-05-10T17:22:12.260Z,42.00
2019-05-10T17:24:46.700Z,42.05
2019-05-10T17:27:21.313Z,42.66
2019-05-10T17:29:55.746Z,44.00
2019-05-10T17:32:28.769Z,44.00
2019-05-10T17:35:04.701Z,43.48
2019-05-10T17:37:39.963Z,44.11
2019-05-10T17:40:14.956Z,43.86
2019-05-10T17:42:51.630Z,43.82
2019-05-10T17:45:28.468Z,43.89
2019-05-10T17:48:08.062Z,43.89
2019-05-10T17:50:39.338Z,44.17
2019-05-10T17:53:14.921Z,44.61
2019-05-10T17:55:55.732Z,44.24
2019-05-10T17:58:27.771Z,44.54
2019-05-10T18:01:03.254Z,44.45
2019-05-10T18:03:38.260Z,45.02
2019-05-10T18:06:23.526Z,45.17
2019-05-10T18:08:48.951Z,45.55
2019-05-10T18:11:23.915Z,45.55
2019-05-10T18:13:58.567Z,45.46
2019-05-10T18:16:33.268Z,45.69
2019-05-10T18:19:07.942Z,45.74
2019-05-10T18:24:01.333Z,45.74
2019-05-10T18:26:39.581Z,46.03
2019-05-10T18:29:11.305Z,45.97
2019-05-10T18:31:54.485Z,47.04
2019-05-10T18:34:26.403Z,47.04
2019-05-10T18:36:56.871Z,46.41
2019-05-10T18:39:33.587Z,47.31
2019-05-10T18:42:11.291Z,47.49
2019-05-10T18:44:51.380Z,47.13
2019-05-10T18:47:22.074Z,47.29
2019-05-10T18:49:56.418Z,48.21
2019-05-10T18:52:31.299Z,48.21
2019-05-10T18:55:05.944Z,49.21
2019-05-10T18:57:40.290Z,51.12
2019-05-10T19:00:17.517Z,51.12
2019-05-10T19:02:55.381Z,51.62
2019-05-10T19:05:33.174Z,51.86
2019-05-10T19:08:06.799Z,52.04
2019-05-10T19:10:40.362Z,52.04
2019-05-10T19:13:15.984Z,52.47
2019-05-10T19:15:52.859Z,52.49
2019-05-10T19:18:27.147Z,52.90
2019-05-10T19:21:02.250Z,52.31
2019-05-10T19:23:37.608Z,52.31
2019-05-10T19:26:13.478Z,53.04
2019-05-10T19:28:48.660Z,53.35
2019-05-10T19:31:24.895Z,53.87
2019-05-10T19:34:00.284Z,53.87
2019-05-10T19:36:36.295Z,54.14
2019-05-10T19:39:12.121Z,54.38
2019-05-10T19:41:46.954Z,54.34
2019-05-10T19:44:21.748Z,54.88
2019-05-10T19:46:56.297Z,54.88
2019-05-10T19:49:31.118Z,55.02
2019-05-10T19:52:05.746Z,55.37
2019-05-10T19:54:38.696Z,55.67
2019-05-10T19:57:21.741Z,55.60
2019-05-10T19:59:55.162Z,55.94
2019-05-10T20:02:31.722Z,55.84
2019-05-10T20:05:06.688Z,55.82
2019-05-10T20:07:45.939Z,56.19
2019-05-10T20:10:17.276Z,56.33
2019-05-10T20:12:51.665Z,56.16
2019-05-10T20:15:25.945Z,56.48
2019-05-10T20:18:00.452Z,56.48
2019-05-10T20:20:35.267Z,56.67
2019-05-10T20:23:09.742Z,56.68
2019-05-10T20:25:44.136Z,56.26
2019-05-10T20:28:18.876Z,56.24
2019-05-10T20:30:54.296Z,56.95
2019-05-10T20:33:29.109Z,57.24
2019-05-10T20:36:04.236Z,58.19
2019-05-10T20:38:39.244Z,58.19
2019-05-10T20:41:13.946Z,57.50
2019-05-10T20:43:47.121Z,57.12
2019-05-10T20:46:37.283Z,57.13
2019-05-10T20:49:14.288Z,55.88
2019-05-10T20:51:49.097Z,56.72
2019-05-10T20:54:24.293Z,57.21
2019-05-10T20:56:59.300Z,58.54
2019-05-10T20:59:34.301Z,59.91
2019-05-10T21:02:09.353Z,61.04
2019-05-10T21:04:44.322Z,62.97
2019-05-10T21:07:19.281Z,63.92
2019-05-10T21:09:54.292Z,64.71
2019-05-10T21:12:28.947Z,64.99
2019-05-10T21:15:02.110Z,64.95
2019-05-10T21:17:36.790Z,64.28
2019-05-10T21:20:11.054Z,64.28
2019-05-10T21:22:45.308Z,64.84
2019-05-10T21:25:19.769Z,64.84
2019-05-10T21:27:52.709Z,63.63
2019-05-10T21:30:26.945Z,63.42
2019-05-10T21:33:00.033Z,63.66
2019-05-10T21:35:32.850Z,63.73
2019-05-10T21:38:08.282Z,64.30
2019-05-10T21:40:42.662Z,64.02
2019-05-10T21:43:17.286Z,64.27
2019-05-10T21:45:51.731Z,63.62
2019-05-10T21:48:26.306Z,63.39
2019-05-10T21:51:00.834Z,63.54
2019-05-10T21:53:34.345Z,64.22
2019-05-10T21:56:09.705Z,63.65
2019-05-10T21:58:44.294Z,63.88
2019-05-10T22:01:19.256Z,64.52
2019-05-10T22:03:53.878Z,63.07
2019-05-10T22:06:28.282Z,62.63
2019-05-10T22:09:02.890Z,62.55
2019-05-10T22:11:36.135Z,62.36
2019-05-10T22:14:09.092Z,63.31
2019-05-10T22:16:43.964Z,63.86
2019-05-10T22:19:19.305Z,64.48
2019-05-10T22:21:55.457Z,64.48
2019-05-10T22:24:30.829Z,64.47
2019-05-10T22:27:04.390Z,64.14
2019-05-10T22:29:40.363Z,64.12
2019-05-10T22:32:15.302Z,64.25
2019-05-10T22:34:49.796Z,64.63
2019-05-10T22:37:24.292Z,65.06
2019-05-10T22:39:58.953Z,65.09
2019-05-10T22:42:32.272Z,65.03
2019-05-10T22:45:07.954Z,64.58
2019-05-10T22:47:42.317Z,64.58
2019-05-10T22:50:17.330Z,64.51
2019-05-10T22:52:51.948Z,64.77
2019-05-10T22:55:25.067Z,64.88
2019-05-10T22:57:59.500Z,65.11
2019-05-10T23:00:34.281Z,64.76
2019-05-10T23:03:09.125Z,64.77
2019-05-10T23:05:43.827Z,65.00
2019-05-10T23:08:16.868Z,65.00
2019-05-10T23:10:51.321Z,64.65
2019-05-10T23:13:29.287Z,64.27
2019-05-10T23:16:09.319Z,64.12
2019-05-10T23:18:44.285Z,64.26
2019-05-10T23:21:19.044Z,64.40
2019-05-10T23:23:53.754Z,64.57
2019-05-10T23:26:27.305Z,64.57
2019-05-10T23:29:01.562Z,65.23
2019-05-10T23:31:35.946Z,65.23
2019-05-10T23:34:10.274Z,65.48
2019-05-10T23:36:44.763Z,64.70
2019-05-10T23:39:17.797Z,64.58
2019-05-10T23:41:51.902Z,64.38
2019-05-10T23:44:24.875Z,65.14
2019-05-10T23:46:57.675Z,64.76
2019-05-10T23:49:31.940Z,64.76
2019-05-10T23:52:04.965Z,65.44
2019-05-10T23:54:39.288Z,64.43
2019-05-10T23:57:13.690Z,64.43
2019-05-10T23:59:47.950Z,65.38
